Time;durP1;ratioP1;P1;durP2;ratioP2;P2;SDS_P1;SDS_P2;PMS_P1;PMS_P2;Temp;Humidity;BMP_temperature;BMP_pressure;BME280_temperature;BME280_humidity;BME280_pressure;Samples;Min_cycle;Max_cycle;Signal;HPM_P1;HPM_P2
2021/06/30 00:01:48;;;;;;;;;;;;;;;19.04;75.96;97555.97;1738306;82;20812;-85
2021/06/30 00:04:14;;;;;;;;;;;;;;;18.96;76.12;97579.42;1743354;82;20730;-85
2021/06/30 00:06:40;;;;;;;;;;;;;;;18.88;76.28;97594.57;1738918;82;20845;-85
2021/06/30 00:09:06;;;;;;;;;;;;;;;;;;1737172;82;21060;-85
2021/06/30 00:11:31;;;;;;;;;;;;;;;18.84;76.60;97598.59;1737086;82;20589;-85
2021/06/30 00:13:57;;;;;;;;;;;;;;;18.83;76.76;97612.34;1739656;82;20864;-85
2021/06/30 00:16:23;;;;;;;;;;;;;;;18.84;76.91;97598.09;1738402;82;20307;-85
2021/06/30 00:18:49;;;;;;;;;;;;;;;18.86;77.08;97605.88;1739848;82;20218;-85
2021/06/30 00:21:15;;;;;;;;;;;;;;;18.86;77.20;97617.81;1740113;82;21129;-85
2021/06/30 00:23:42;;;;;;;;;;;;;;;18.85;77.36;97602.40;1744321;82;20349;-85
2021/06/30 00:26:08;;;;;;;;;;;;;;;18.78;77.47;97591.68;1740941;82;20529;-85
2021/06/30 00:28:34;;;;;;;;;;;;;;;18.77;77.59;97628.47;1736692;82;20287;-85
2021/06/30 00:31:00;;;;;;;;;;;;;;;18.85;77.74;97640.84;1736172;82;20326;-85
2021/06/30 00:33:26;;;;;;;;;;;;;;;18.91;77.85;97608.81;1739423;82;21685;-85
2021/06/30 00:35:52;;;;;;;;;;;;;;;18.91;77.97;97587.59;1746403;81;20305;-85
2021/06/30 00:38:18;;;;;;;;;;;;;;;18.94;78.04;97584.58;1750238;81;20309;-85
2021/06/30 00:40:45;;;;;;;;;;;;;;;18.97;78.13;97584.23;1749197;81;20412;-85
2021/06/30 00:43:11;;;;;;;;;;;;;;;18.98;78.20;97559.37;1748751;81;22286;-86
2021/06/30 00:45:37;;;;;;;;;;;;;;;18.94;78.27;97512.98;1746767;81;21824;-85
2021/06/30 00:48:03;;;;;;;;;;;;;;;18.79;78.31;97497.08;1746147;81;20308;-85
2021/06/30 00:50:29;;;;;;;;;;;;;;;18.72;78.37;97500.95;1744743;81;20317;-85
2021/06/30 00:52:55;;;;;;;;;;;;;;;18.71;78.46;97498.50;1748557;81;20233;-85
2021/06/30 00:55:23;;;;;;;;;;;;;;;18.73;78.54;97477.41;1746982;81;21589;-85
2021/06/30 00:57:49;;;;;;;;;;;;;;;18.72;78.61;97470.96;1747569;81;25971;-85
2021/06/30 01:00:15;;;;;;;;;;;;;;;18.73;78.69;97484.54;1748239;81;20321;-85
2021/06/30 01:02:41;;;;;;;;;;;;;;;18.76;78.78;97480.22;1749061;81;20198;-85
2021/06/30 01:05:07;;;;;;;;;;;;;;;18.76;78.88;97465.11;1733907;82;20466;-85
2021/06/30 01:07:33;;;;;;;;;;;;;;;18.80;78.93;97447.86;1748064;81;22285;-85
2021/06/30 01:09:59;;;;;;;;;;;;;;;18.74;79.00;97457.03;1744341;81;25959;-85
2021/06/30 01:12:25;;;;;;;;;;;;;;;18.77;79.07;97460.13;1749254;81;20325;-89
2021/06/30 01:14:51;;;;;;;;;;;;;;;18.91;79.18;97465.13;1750174;81;20352;-90
2021/06/30 01:17:17;;;;;;;;;;;;;;;18.93;79.23;97421.21;1744072;81;20264;-89
2021/06/30 01:19:43;;;;;;;;;;;;;;;18.90;79.28;97400.35;1721215;81;20576;-89
2021/06/30 01:22:09;;;;;;;;;;;;;;;19.00;79.31;97398.23;1747791;81;20992;-90
2021/06/30 01:24:36;;;;;;;;;;;;;;;18.94;79.36;97383.06;1745729;81;20232;-89
2021/06/30 01:27:03;;;;;;;;;;;;;;;18.94;79.38;97399.79;1746735;81;20441;-89
2021/06/30 01:29:29;;;;;;;;;;;;;;;18.97;79.43;97397.28;1747236;81;24767;-89
2021/06/30 01:31:54;;;;;;;;;;;;;;;18.90;79.47;97391.07;1744696;81;20226;-89
2021/06/30 01:34:26;;;;;;;;;;;;;;;18.89;79.50;97393.39;1741907;81;21675;-89
2021/06/30 01:36:54;;;;;;;;;;;;;;;18.99;79.56;97405.86;1736585;81;24517;-89
2021/06/30 01:39:21;;;;;;;;;;;;;;;19.07;79.60;97393.84;1731849;82;20227;-89
2021/06/30 01:41:47;;;;;;;;;;;;;;;19.04;79.63;97387.06;1731576;82;24786;-89
2021/06/30 01:44:14;;;;;;;;;;;;;;;19.10;79.69;97389.48;1730823;82;21984;-89
2021/06/30 01:46:40;;;;;;;;;;;;;;;19.10;79.74;97388.15;1730862;82;26051;-90
2021/06/30 01:49:06;;;;;;;;;;;;;;;19.07;79.73;97382.73;1730728;82;24393;-89
2021/06/30 01:51:32;;;;;;;;;;;;;;;19.08;79.76;97380.91;1727609;82;20354;-89
2021/06/30 01:53:59;;;;;;;;;;;;;;;19.05;79.78;97376.78;1731546;82;24839;-89
2021/06/30 01:56:26;;;;;;;;;;;;;;;19.06;79.80;97364.34;1731660;82;22032;-89
2021/06/30 01:59:00;;;;;;;;;;;;;;;19.03;79.83;97362.08;1729643;82;25964;-89
2021/06/30 02:01:26;;;;;;;;;;;;;;;19.12;79.85;97360.95;1730326;82;25110;-89
2021/06/30 02:03:54;;;;;;;;;;;;;;;19.17;79.87;97346.63;1728682;82;20239;-89
2021/06/30 02:06:19;;;;;;;;;;;;;;;19.13;79.89;97344.86;1731224;82;24728;-88
2021/06/30 02:08:45;;;;;;;;;;;;;;;19.11;79.87;97348.69;1732277;82;20309;-89
2021/06/30 02:11:11;;;;;;;;;;;;;;;19.10;79.86;97343.06;1726349;82;21850;-89
2021/06/30 02:13:37;;;;;;;;;;;;;;;19.06;79.89;97344.45;1731533;82;20411;-89
2021/06/30 02:16:03;;;;;;;;;;;;;;;19.04;79.89;97343.81;1728062;82;20494;-89
2021/06/30 02:18:29;;;;;;;;;;;;;;;19.03;79.93;97335.56;1712493;83;20210;-89
2021/06/30 02:20:55;;;;;;;;;;;;;;;19.00;79.97;97330.11;1731110;82;20305;-89
2021/06/30 02:23:21;;;;;;;;;;;;;;;19.00;80.00;97339.39;1726414;82;21900;-89
2021/06/30 02:25:48;;;;;;;;;;;;;;;19.00;80.05;97343.88;1706727;82;20518;-89
2021/06/30 02:28:15;;;;;;;;;;;;;;;18.94;80.12;97353.39;1722411;82;20312;-89
2021/06/30 02:30:41;;;;;;;;;;;;;;;18.93;80.14;97361.02;1730803;81;24759;-89
2021/06/30 02:33:07;;;;;;;;;;;;;;;18.91;80.21;97359.08;1735332;82;21965;-89
2021/06/30 02:35:33;;;;;;;;;;;;;;;18.87;80.25;97347.21;1719639;82;20992;-89
2021/06/30 02:38:00;;;;;;;;;;;;;;;18.83;80.29;97351.71;1756413;81;24451;-89
2021/06/30 02:40:27;;;;;;;;;;;;;;;18.79;80.37;97350.77;1732812;82;20156;-89
2021/06/30 02:42:53;;;;;;;;;;;;;;;18.79;80.42;97355.25;1753280;80;25368;-89
2021/06/30 02:45:19;;;;;;;;;;;;;;;18.77;80.52;97360.73;1720878;83;20233;-88
2021/06/30 02:47:46;;;;;;;;;;;;;;;18.79;80.60;97379.94;1709913;81;26035;-89
2021/06/30 02:50:18;;;;;;;;;;;;;;;18.82;80.67;97381.91;1757970;81;25234;-89
2021/06/30 02:52:45;;;;;;;;;;;;;;;18.83;80.76;97384.85;1750268;81;20171;-89
2021/06/30 02:55:11;;;;;;;;;;;;;;;18.86;80.82;97382.67;1713756;81;24640;-89
2021/06/30 02:57:38;;;;;;;;;;;;;;;18.86;80.89;97391.12;1742376;81;22126;-89
2021/06/30 03:00:06;;;;;;;;;;;;;;;18.83;80.93;97387.00;1742090;81;25959;-89
2021/06/30 03:02:32;;;;;;;;;;;;;;;18.76;81.00;97394.86;1746192;81;24451;-89
2021/06/30 03:04:58;;;;;;;;;;;;;;;18.66;81.04;97395.64;1744662;81;20314;-89
2021/06/30 03:07:24;;;;;;;;;;;;;;;18.54;81.13;97401.11;1747463;81;20749;-89
2021/06/30 03:09:49;;;;;;;;;;;;;;;18.46;81.19;97405.12;1745344;81;20206;-89
2021/06/30 03:12:15;;;;;;;;;;;;;;;18.41;81.27;97411.47;1714042;82;20922;-89
2021/06/30 03:14:41;;;;;;;;;;;;;;;18.37;81.35;97427.41;1743134;81;24485;-89
2021/06/30 03:17:07;;;;;;;;;;;;;;;18.25;81.45;97419.58;1749428;81;20902;-89
2021/06/30 03:19:33;;;;;;;;;;;;;;;18.17;81.54;97422.28;1750714;81;20743;-89
2021/06/30 03:21:59;;;;;;;;;;;;;;;18.09;81.62;97425.02;1747406;81;20206;-89
2021/06/30 03:24:25;;;;;;;;;;;;;;;18.06;81.73;97421.38;1744176;81;20975;-89
2021/06/30 03:26:51;;;;;;;;;;;;;;;18.03;81.82;97429.20;1751708;81;20246;-89
2021/06/30 03:29:17;;;;;;;;;;;;;;;17.99;81.93;97434.54;1743380;81;20274;-88
2021/06/30 03:31:43;;;;;;;;;;;;;;;17.93;82.03;97436.56;1751028;81;20414;-88
2021/06/30 03:34:09;;;;;;;;;;;;;;;17.87;82.14;97440.75;1745168;81;21939;-89
2021/06/30 03:36:35;;;;;;;;;;;;;;;17.81;82.22;97444.09;1748884;81;21753;-88
2021/06/30 03:39:01;;;;;;;;;;;;;;;17.80;82.33;97450.38;1752786;81;20241;-89
2021/06/30 03:41:26;;;;;;;;;;;;;;;17.77;82.41;97438.84;1725863;81;20258;-88
2021/06/30 03:43:52;;;;;;;;;;;;;;;17.75;82.49;97443.47;1752906;81;20268;-88
2021/06/30 03:46:18;;;;;;;;;;;;;;;17.70;82.61;97443.18;1727849;81;20414;-88
2021/06/30 03:48:44;;;;;;;;;;;;;;;17.67;82.67;97446.69;1758820;81;21653;-88
2021/06/30 03:51:10;;;;;;;;;;;;;;;17.65;82.76;97452.15;1750946;81;24425;-88
2021/06/30 03:53:36;;;;;;;;;;;;;;;17.66;82.89;97461.73;1748607;81;20260;-89
2021/06/30 03:56:02;;;;;;;;;;;;;;;17.64;82.97;97461.08;1752347;81;20278;-89
2021/06/30 03:58:28;;;;;;;;;;;;;;;17.63;83.03;97460.75;1758553;81;20242;-89
2021/06/30 04:00:55;;;;;;;;;;;;;;;17.61;83.11;97460.62;1719202;81;42031;-89
2021/06/30 04:03:22;;;;;;;;;;;;;;;17.60;83.16;97466.91;1746847;81;20244;-88
2021/06/30 04:05:48;;;;;;;;;;;;;;;17.61;83.24;97471.20;1751544;81;20548;-88
2021/06/30 04:08:14;;;;;;;;;;;;;;;17.62;83.30;97478.14;1755864;81;20544;-88
2021/06/30 04:10:47;;;;;;;;;;;;;;;17.63;83.35;97485.06;1749338;81;20915;-92
2021/06/30 04:13:16;;;;;;;;;;;;;;;17.68;83.44;97487.51;1743648;81;26776;-91
2021/06/30 04:15:46;;;;;;;;;;;;;;;17.70;83.52;97484.20;1744261;81;25194;-91
2021/06/30 04:18:15;;;;;;;;;;;;;;;17.73;83.59;97493.63;1756346;81;20240;-92
2021/06/30 04:20:44;;;;;;;;;;;;;;;17.78;83.61;97496.05;1751434;81;24925;-91
2021/06/30 04:23:16;;;;;;;;;;;;;;;17.88;83.65;97502.45;1752570;81;21987;-92
2021/06/30 04:25:47;;;;;;;;;;;;;;;18.01;83.74;97505.33;1759203;80;26441;-91
2021/06/30 04:28:12;;;;;;;;;;;;;;;18.12;83.79;97495.64;1756264;81;24597;-91
2021/06/30 04:30:38;;;;;;;;;;;;;;;18.31;83.88;97507.09;1751470;81;20332;-91
2021/06/30 04:33:07;;;;;;;;;;;;;;;18.44;83.91;97512.30;1754578;81;20481;-92
2021/06/30 04:35:33;;;;;;;;;;;;;;;18.52;83.87;97515.69;1753544;81;22075;-91
2021/06/30 04:38:03;;;;;;;;;;;;;;;18.59;83.85;97520.63;1741156;81;20967;-91
2021/06/30 04:40:32;;;;;;;;;;;;;;;18.66;83.81;97525.52;1739187;82;25095;-91
2021/06/30 04:42:58;;;;;;;;;;;;;;;18.71;83.76;97532.42;1734909;82;20365;-91
2021/06/30 04:45:24;;;;;;;;;;;;;;;18.80;83.72;97537.16;1734347;82;20399;-91
2021/06/30 04:47:50;;;;;;;;;;;;;;;18.84;83.66;97538.94;1733194;82;20305;-91
2021/06/30 04:50:21;;;;;;;;;;;;;;;18.88;83.59;97539.72;1736399;82;21023;-91
2021/06/30 04:52:52;;;;;;;;;;;;;;;19.01;83.58;97547.06;1739938;82;24590;-91
2021/06/30 04:55:18;;;;;;;;;;;;;;;19.09;83.53;97555.73;1731043;82;20257;-91
2021/06/30 04:57:44;;;;;;;;;;;;;;;19.14;83.45;97557.88;1734169;82;20199;-91
2021/06/30 05:00:10;;;;;;;;;;;;;;;19.17;83.36;97559.64;1736119;82;20267;-91
2021/06/30 05:02:36;;;;;;;;;;;;;;;19.22;83.30;97559.09;1735039;82;26688;-91
2021/06/30 05:05:03;;;;;;;;;;;;;;;19.27;83.21;97558.54;1736207;82;20234;-91
2021/06/30 05:07:34;;;;;;;;;;;;;;;19.34;83.14;97563.44;1732990;82;20236;-91
2021/06/30 05:10:07;;;;;;;;;;;;;;;19.39;83.08;97569.84;1735800;82;24824;-91
2021/06/30 05:12:33;;;;;;;;;;;;;;;19.38;82.92;97561.56;1735224;82;22640;-91
2021/06/30 05:14:59;;;;;;;;;;;;;;;19.38;82.82;97554.92;1737263;82;21621;-91
2021/06/30 05:17:25;;;;;;;;;;;;;;;19.39;82.71;97559.23;1735648;82;20234;-91
2021/06/30 05:19:51;;;;;;;;;;;;;;;19.35;82.62;97551.83;1737788;82;20289;-92
2021/06/30 05:22:23;;;;;;;;;;;;;;;19.38;82.50;97546.97;1737097;82;20323;-92
2021/06/30 05:24:49;;;;;;;;;;;;;;;19.39;82.40;97553.10;1736159;82;21965;-92
2021/06/30 05:27:17;;;;;;;;;;;;;;;19.39;82.35;97542.48;1738848;82;21052;-91
2021/06/30 05:29:46;;;;;;;;;;;;;;;19.36;82.21;97546.34;1736735;82;24580;-91
2021/06/30 05:32:18;;;;;;;;;;;;;;;19.35;82.11;97546.52;1738833;82;20168;-91
2021/06/30 05:34:59;;;;;;;;;;;;;;;19.35;82.03;97547.84;1732154;82;24820;-92
2021/06/30 05:37:31;;;;;;;;;;;;;;;19.41;81.98;97551.09;1735624;81;22010;-91
2021/06/30 05:40:09;;;;;;;;;;;;;;;19.40;81.95;97552.92;1730841;82;26041;-91
2021/06/30 05:42:38;;;;;;;;;;;;;;;19.44;81.88;97550.22;1737957;82;25319;-92
2021/06/30 05:45:06;;;;;;;;;;;;;;;19.46;81.84;97554.87;1737005;82;20155;-91
2021/06/30 05:47:32;;;;;;;;;;;;;;;19.50;81.75;97557.98;1734379;82;24750;-91
2021/06/30 05:49:59;;;;;;;;;;;;;;;19.48;81.70;97562.13;1735692;82;20318;-91
2021/06/30 05:52:25;;;;;;;;;;;;;;;19.47;81.57;97564.49;1736684;82;26026;-91
2021/06/30 05:54:51;;;;;;;;;;;;;;;19.53;81.50;97565.55;1739199;82;20242;-91
2021/06/30 05:57:16;;;;;;;;;;;;;;;19.58;81.44;97561.87;1735545;82;20309;-91
2021/06/30 05:59:48;;;;;;;;;;;;;;;19.62;81.43;97563.97;1739730;82;24773;-90
2021/06/30 06:02:14;;;;;;;;;;;;;;;19.64;81.33;97562.43;1737113;82;22723;-91
2021/06/30 06:04:40;;;;;;;;;;;;;;;19.63;81.14;97558.16;1735836;82;21664;-91
2021/06/30 06:07:06;;;;;;;;;;;;;;;19.63;81.04;97567.45;1737074;82;20238;-90
2021/06/30 06:09:32;;;;;;;;;;;;;;;19.66;80.93;97568.89;1733739;82;20229;-91
2021/06/30 06:11:58;;;;;;;;;;;;;;;19.68;80.87;97566.89;1738620;82;20466;-91
2021/06/30 06:14:24;;;;;;;;;;;;;;;19.70;80.76;97564.84;1729279;82;20309;-91
2021/06/30 06:16:50;;;;;;;;;;;;;;;19.71;80.75;97566.00;1736549;82;20475;-91
2021/06/30 06:19:17;;;;;;;;;;;;;;;19.77;80.74;97572.40;1729710;82;20839;-91
2021/06/30 06:21:42;;;;;;;;;;;;;;;19.81;80.68;97575.82;1732402;82;20215;-91
2021/06/30 06:24:09;;;;;;;;;;;;;;;19.89;80.66;97571.75;1737805;82;20231;-90
2021/06/30 06:26:35;;;;;;;;;;;;;;;19.98;80.65;97577.75;1736557;82;22629;-91
2021/06/30 06:29:00;;;;;;;;;;;;;;;20.08;80.63;97584.09;1737200;82;20910;-91
2021/06/30 06:31:28;;;;;;;;;;;;;;;20.16;80.55;97582.66;1739595;82;20235;-91
2021/06/30 06:33:54;;;;;;;;;;;;;;;20.24;80.47;97595.81;1738665;82;20489;-90
2021/06/30 06:36:20;;;;;;;;;;;;;;;20.35;80.42;97596.67;1732636;81;20846;-90
2021/06/30 06:38:46;;;;;;;;;;;;;;;20.43;80.40;97599.23;1740084;81;22029;-91
2021/06/30 06:41:18;;;;;;;;;;;;;;;20.51;80.39;97603.08;1757722;81;21085;-91
2021/06/30 06:43:44;;;;;;;;;;;;;;;20.58;80.34;97596.50;1758888;81;24532;-90
2021/06/30 06:46:10;;;;;;;;;;;;;;;20.61;80.14;97602.28;1754623;81;20219;-90
2021/06/30 06:48:36;;;;;;;;;;;;;;;20.65;79.98;97601.38;1757128;81;20463;-90
2021/06/30 06:51:02;;;;;;;;;;;;;;;20.73;79.89;97598.06;1753081;81;22568;-90
2021/06/30 06:53:29;;;;;;;;;;;;;;;20.77;79.71;97600.69;1746347;81;26658;-90
2021/06/30 06:55:56;;;;;;;;;;;;;;;20.82;79.50;97600.10;1743891;81;24443;-91
2021/06/30 06:58:22;;;;;;;;;;;;;;;20.87;79.27;97600.34;1755105;81;20583;-90
2021/06/30 07:00:49;;;;;;;;;;;;;;;20.96;79.11;97595.70;1755621;81;25635;-90
2021/06/30 07:03:15;;;;;;;;;;;;;;;21.07;79.05;97600.48;1751003;81;20841;-91
2021/06/30 07:05:40;;;;;;;;;;;;;;;21.19;79.01;97598.47;1747473;81;21020;-90
2021/06/30 07:08:07;;;;;;;;;;;;;;;21.27;78.89;97602.30;1753339;81;20305;-90
2021/06/30 07:10:33;;;;;;;;;;;;;;;21.37;78.73;97600.64;1756461;81;20179;-91
2021/06/30 07:12:59;;;;;;;;;;;;;;;21.45;78.63;97600.98;1723418;81;24151;-90
2021/06/30 07:15:25;;;;;;;;;;;;;;;21.48;78.42;97601.94;1759051;81;20313;-91
2021/06/30 07:17:54;;;;;;;;;;;;;;;21.50;78.15;97600.70;1752600;81;21779;-90
2021/06/30 07:20:26;;;;;;;;;;;;;;;21.56;77.84;97597.77;1752752;81;24396;-90
2021/06/30 07:22:57;;;;;;;;;;;;;;;21.62;77.61;97599.14;1752490;81;20540;-90
2021/06/30 07:25:29;;;;;;;;;;;;;;;21.74;77.43;97599.91;1754951;81;24820;-90
2021/06/30 07:27:55;;;;;;;;;;;;;;;21.80;77.23;97597.29;1749319;81;21953;-90
2021/06/30 07:30:21;;;;;;;;;;;;;;;21.93;77.04;97599.20;1752007;81;20985;-90
2021/06/30 07:32:47;;;;;;;;;;;;;;;22.10;76.99;97599.98;1749513;81;20246;-91
2021/06/30 07:35:19;;;;;;;;;;;;;;;22.25;76.95;97600.36;1741961;81;20343;-90
2021/06/30 07:37:44;;;;;;;;;;;;;;;22.28;76.73;97602.61;1751525;81;24802;-90
2021/06/30 07:40:17;;;;;;;;;;;;;;;22.35;76.53;97606.12;1760171;81;20202;-90
2021/06/30 07:42:44;;;;;;;;;;;;;;;22.44;76.39;97600.39;1760991;81;26755;-91
2021/06/30 07:45:10;;;;;;;;;;;;;;;22.55;76.21;97602.97;1751576;81;24675;-91
2021/06/30 07:47:36;;;;;;;;;;;;;;;22.62;76.02;97600.32;1743702;81;20188;-90
2021/06/30 07:50:06;;;;;;;;;;;;;;;22.73;75.85;97601.08;1758323;81;25352;-90
2021/06/30 07:52:35;;;;;;;;;;;;;;;22.90;75.71;97600.48;1758532;81;22014;-90
2021/06/30 07:55:01;;;;;;;;;;;;;;;23.02;75.51;97605.20;1751048;81;26111;-90
2021/06/30 07:57:27;;;;;;;;;;;;;;;23.02;75.11;97603.87;1751094;81;20309;-90
2021/06/30 07:59:52;;;;;;;;;;;;;;;23.07;74.78;97598.73;1755962;81;20320;-91
2021/06/30 08:02:21;;;;;;;;;;;;;;;23.12;74.56;97601.60;1753342;81;20202;-91
2021/06/30 08:04:47;;;;;;;;;;;;;;;23.15;74.27;97603.84;1746255;81;22054;-91
2021/06/30 08:07:13;;;;;;;;;;;;;;;23.19;74.05;97601.06;1755330;81;20950;-90
2021/06/30 08:09:39;;;;;;;;;;;;;;;23.24;73.85;97603.92;1753497;81;20305;-90
2021/06/30 08:12:05;;;;;;;;;;;;;;;23.28;73.58;97610.52;1761270;81;20273;-91
2021/06/30 08:14:37;;;;;;;;;;;;;;;23.33;73.36;97600.86;1758121;81;24732;-90
2021/06/30 08:17:10;;;;;;;;;;;;;;;23.42;73.19;97598.77;1744396;81;21961;-91
2021/06/30 08:19:36;;;;;;;;;;;;;;;23.49;72.97;97603.62;1751371;81;25993;-90
2021/06/30 08:22:03;;;;;;;;;;;;;;;23.51;72.75;97607.44;1750932;81;20263;-91
2021/06/30 08:24:34;;;;;;;;;;;;;;;23.52;72.45;97608.53;1725475;81;20501;-90
2021/06/30 08:27:09;;;;;;;;;;;;;;;23.54;72.26;97608.34;1756675;81;24812;-91
2021/06/30 08:29:37;;;;;;;;;;;;;;;23.51;72.00;97616.23;1753352;81;21946;-91
2021/06/30 08:32:09;;;;;;;;;;;;;;;23.48;71.75;97613.17;1745339;81;25944;-90
2021/06/30 08:34:35;;;;;;;;;;;;;;;23.42;71.46;97610.79;1743222;81;24547;-91
2021/06/30 08:37:05;;;;;;;;;;;;;;;23.33;71.18;97613.38;1756287;81;20242;-90
2021/06/30 08:39:31;;;;;;;;;;;;;;;23.30;71.04;97615.12;1743367;81;24775;-91
2021/06/30 08:42:04;;;;;;;;;;;;;;;23.33;70.88;97616.05;1746487;81;22079;-90
2021/06/30 08:44:31;;;;;;;;;;;;;;;23.37;70.81;97615.94;1743145;81;25944;-91
2021/06/30 08:47:01;;;;;;;;;;;;;;;23.37;70.66;97615.94;1707116;81;24468;-91
2021/06/30 08:49:33;;;;;;;;;;;;;;;23.30;70.31;97617.78;1745264;81;20234;-90
2021/06/30 08:51:59;;;;;;;;;;;;;;;23.26;70.06;97619.23;1740021;81;24795;-91
2021/06/30 08:54:25;;;;;;;;;;;;;;;23.26;69.91;97617.39;1745796;81;20912;-89
2021/06/30 08:56:52;;;;;;;;;;;;;;;23.26;69.76;97619.23;1747715;81;26753;-90
2021/06/30 08:59:20;;;;;;;;;;;;;;;23.24;69.64;97621.28;1743795;81;25153;-90
2021/06/30 09:01:46;;;;;;;;;;;;;;;23.12;69.40;97619.78;1742220;81;20186;-90
2021/06/30 09:04:15;;;;;;;;;;;;;;;23.08;69.20;97622.53;1742541;81;20573;-90
2021/06/30 09:06:41;;;;;;;;;;;;;;;23.08;69.14;97620.37;1743541;81;23555;-90
2021/06/30 09:09:09;;;;;;;;;;;;;;;23.03;68.92;97620.98;1746273;81;26052;-90
2021/06/30 09:11:35;;;;;;;;;;;;;;;23.01;68.82;97616.90;1745388;81;24433;-89
2021/06/30 09:14:24;;;;;;;;;;;;;;;23.03;68.80;97619.66;1745565;81;20290;-90
2021/06/30 09:16:54;;;;;;;;;;;;;;;23.06;68.79;97620.59;1748887;81;24892;-90
2021/06/30 09:19:19;;;;;;;;;;;;;;;23.11;68.75;97622.13;1743001;81;22106;-90
2021/06/30 09:21:46;;;;;;;;;;;;;;;23.12;68.76;97622.95;1741352;81;25979;-91
2021/06/30 09:24:18;;;;;;;;;;;;;;;23.16;68.72;97625.00;1745433;81;24510;-90
2021/06/30 09:26:54;;;;;;;;;;;;;;;23.19;68.67;97625.91;1742744;81;20236;-91
2021/06/30 09:29:21;;;;;;;;;;;;;;;23.25;68.57;97626.94;1746496;81;24841;-90
2021/06/30 09:31:50;;;;;;;;;;;;;;;23.31;68.51;97632.27;1742726;81;22102;-90
2021/06/30 09:34:20;;;;;;;;;;;;;;;23.35;68.45;97625.48;1739701;81;25951;-91
2021/06/30 09:36:54;;;;;;;;;;;;;;;23.33;68.19;97625.40;1747171;81;24568;-90
2021/06/30 09:39:17;;;;;;;;;;;;;;;23.40;68.20;97633.41;1750571;81;20155;-90
2021/06/30 09:41:45;;;;;;;;;;;;;;;23.41;68.12;97625.68;1750036;81;24859;-90
2021/06/30 09:44:12;;;;;;;;;;;;;;;23.44;68.07;97623.44;1752048;81;21930;-90
2021/06/30 09:46:39;;;;;;;;;;;;;;;23.44;67.89;97622.09;1721259;81;25968;-89
2021/06/30 09:49:07;;;;;;;;;;;;;;;23.44;67.69;97624.77;1750730;81;24424;-90
2021/06/30 09:51:36;;;;;;;;;;;;;;;23.46;67.50;97626.73;1747421;81;20512;-90
2021/06/30 09:54:07;;;;;;;;;;;;;;;23.48;67.39;97630.02;1755061;81;25747;-90
2021/06/30 09:56:37;;;;;;;;;;;;;;;23.47;67.16;97623.03;1751876;81;21991;-90
2021/06/30 09:59:11;;;;;;;;;;;;;;;23.49;66.94;97628.18;1751863;81;26831;-90
2021/06/30 10:01:37;;;;;;;;;;;;;;;23.49;66.65;97628.18;1752478;81;25291;-90
2021/06/30 10:04:12;;;;;;;;;;;;;;;23.58;66.68;97629.08;1753018;81;20254;-90
2021/06/30 10:06:38;;;;;;;;;;;;;;;23.65;66.52;97622.39;1750988;81;25562;-90
2021/06/30 10:09:05;;;;;;;;;;;;;;;23.81;66.50;97616.58;1751534;81;20305;-90
2021/06/30 10:11:32;;;;;;;;;;;;;;;23.98;66.51;97619.61;1749872;81;26648;-90
2021/06/30 10:13:59;;;;;;;;;;;;;;;24.05;66.37;97621.23;1746733;81;24466;-90
2021/06/30 10:16:25;;;;;;;;;;;;;;;24.01;66.04;97616.50;1754053;81;20267;-91
2021/06/30 10:18:53;;;;;;;;;;;;;;;23.96;65.80;97617.66;1754774;81;24747;-90
2021/06/30 10:21:20;;;;;;;;;;;;;;;23.96;65.64;97614.98;1752493;81;22093;-90
2021/06/30 10:23:47;;;;;;;;;;;;;;;24.05;65.65;97617.73;1752492;81;25951;-90
2021/06/30 10:26:16;;;;;;;;;;;;;;;24.11;65.57;97619.02;1749314;81;24399;-90
2021/06/30 10:28:43;;;;;;;;;;;;;;;24.13;65.44;97606.78;1748064;81;20322;-90
2021/06/30 10:31:10;;;;;;;;;;;;;;;24.16;65.21;97613.06;1751294;81;24850;-90
2021/06/30 10:33:41;;;;;;;;;;;;;;;24.17;64.98;97612.00;1752714;81;22000;-89
2021/06/30 10:36:06;;;;;;;;;;;;;;;24.12;64.66;97603.80;1753296;81;25973;-90
2021/06/30 10:38:47;;;;;;;;;;;;;;;24.07;64.36;97607.63;1748980;81;24396;-90
2021/06/30 10:41:27;;;;;;;;;;;;;;;24.09;64.22;97607.73;1753243;81;20322;-90
2021/06/30 10:44:12;;;;;;;;;;;;;;;24.18;64.13;97609.67;1737358;81;24752;-90
2021/06/30 10:46:38;;;;;;;;;;;;;;;24.29;64.15;97606.33;1753331;81;22061;-90
2021/06/30 10:49:24;;;;;;;;;;;;;;;24.36;64.05;97603.62;1752481;81;21058;-91
2021/06/30 10:51:55;;;;;;;;;;;;;;;24.36;63.84;97604.95;1757973;81;25449;-90
2021/06/30 10:54:35;;;;;;;;;;;;;;;24.36;63.66;97609.80;1750175;81;20189;-90
2021/06/30 10:57:22;;;;;;;;;;;;;;;24.39;63.52;97599.98;1751357;81;25641;-91
2021/06/30 11:00:09;;;;;;;;;;;;;;;24.43;63.30;97606.57;1753529;81;21958;-89
2021/06/30 11:02:35;;;;;;;;;;;;;;;24.45;63.08;97589.77;1750730;81;26124;-90
2021/06/30 11:05:16;;;;;;;;;;;;;;;24.46;62.89;97599.44;1749823;81;25164;-89
2021/06/30 11:07:44;;;;;;;;;;;;;;;24.47;62.78;97597.08;1752031;81;20278;-90
2021/06/30 11:10:21;;;;;;;;;;;;;;;24.51;62.60;97609.48;1753333;81;24766;-90
2021/06/30 11:12:55;;;;;;;;;;;;;;;24.56;62.50;97598.95;1721552;81;22660;-90
2021/06/30 11:15:38;;;;;;;;;;;;;;;24.65;62.51;97599.54;1758330;81;25997;-90
2021/06/30 11:18:07;;;;;;;;;;;;;;;24.72;62.51;97605.13;1756719;81;24647;-90
2021/06/30 11:20:52;;;;;;;;;;;;;;;24.82;62.42;97607.34;1718757;81;20270;-90
2021/06/30 11:23:19;;;;;;;;;;;;;;;24.76;62.09;97606.36;1757459;81;25516;-90
2021/06/30 11:25:47;;;;;;;;;;;;;;;24.72;61.81;97603.78;1753890;81;21969;-90
2021/06/30 11:28:35;;;;;;;;;;;;;;;24.70;61.63;97604.54;1749931;81;26190;-90
2021/06/30 11:31:02;;;;;;;;;;;;;;;24.65;61.39;97599.54;1749816;81;24452;-90
2021/06/30 11:33:28;;;;;;;;;;;;;;;24.60;61.16;97598.85;1751618;81;20161;-91
2021/06/30 11:35:56;;;;;;;;;;;;;;;24.61;61.07;97599.13;1748581;81;20461;-90
2021/06/30 11:38:23;;;;;;;;;;;;;;;24.63;60.88;97593.57;1747984;81;22060;-91
2021/06/30 11:41:02;;;;;;;;;;;;;;;24.64;60.75;97594.70;1755562;81;26010;-90
2021/06/30 11:43:32;;;;;;;;;;;;;;;24.69;60.74;97590.03;1756298;81;24450;-90
2021/06/30 11:45:56;;;;;;;;;;;;;;;24.75;60.77;97595.34;1748498;81;20199;-90
2021/06/30 11:48:22;;;;;;;;;;;;;;;24.78;60.67;97599.42;1746625;81;24802;-90
2021/06/30 11:50:53;;;;;;;;;;;;;;;24.81;60.52;97597.16;1751500;81;22139;-90
2021/06/30 11:53:39;;;;;;;;;;;;;;;24.87;60.40;97600.81;1758852;81;26070;-90
2021/06/30 11:56:13;;;;;;;;;;;;;;;24.89;60.21;97605.45;1758265;81;24499;-90
2021/06/30 11:58:40;;;;;;;;;;;;;;;24.99;60.25;97599.90;1750421;81;20474;-90
2021/06/30 12:01:17;;;;;;;;;;;;;;;25.04;60.17;97591.20;1739689;81;25547;-91
2021/06/30 12:03:43;;;;;;;;;;;;;;;25.13;60.18;97598.46;1757918;81;22862;-90
2021/06/30 12:06:22;;;;;;;;;;;;;;;25.22;60.21;97598.47;1755685;81;21034;-91
2021/06/30 12:09:06;;;;;;;;;;;;;;;25.25;60.10;97604.23;1752179;81;24419;-90
2021/06/30 12:11:33;;;;;;;;;;;;;;;25.23;59.71;97598.26;1757006;81;20515;-90
2021/06/30 12:14:03;;;;;;;;;;;;;;;25.24;59.52;97598.56;1747314;81;25514;-90
2021/06/30 12:16:40;;;;;;;;;;;;;;;25.24;59.33;97601.24;1754136;81;22009;-90
2021/06/30 12:19:07;;;;;;;;;;;;;;;25.21;59.04;97602.19;1752926;81;26802;-90
2021/06/30 12:21:34;;;;;;;;;;;;;;;25.23;58.89;97599.59;1753934;81;24394;-91
2021/06/30 12:24:00;;;;;;;;;;;;;;;25.31;58.89;97596.62;1756659;81;20239;-90
2021/06/30 12:26:26;;;;;;;;;;;;;;;25.37;58.87;97602.44;1747506;81;20202;-90
2021/06/30 12:28:51;;;;;;;;;;;;;;;25.36;58.70;97597.33;1756493;81;20221;-90
2021/06/30 12:31:17;;;;;;;;;;;;;;;25.36;58.49;97596.81;1725635;82;20946;-90
2021/06/30 12:33:46;;;;;;;;;;;;;;;25.43;58.38;97598.05;1755252;81;20293;-90
2021/06/30 12:36:11;;;;;;;;;;;;;;;25.53;58.44;97588.98;1754267;81;20187;-90
2021/06/30 12:38:37;;;;;;;;;;;;;;;25.56;58.24;97589.10;1754238;81;20182;-90
2021/06/30 12:41:07;;;;;;;;;;;;;;;25.51;58.00;97581.70;1761733;81;20292;-90
2021/06/30 12:43:33;;;;;;;;;;;;;;;25.53;57.97;97584.17;1751428;81;25989;-91
2021/06/30 12:45:59;;;;;;;;;;;;;;;25.51;57.85;97583.05;1756183;81;20239;-91
2021/06/30 12:48:27;;;;;;;;;;;;;;;25.51;57.70;97582.22;1751283;81;20306;-90
2021/06/30 12:50:55;;;;;;;;;;;;;;;25.50;57.54;97576.04;1750607;81;24820;-89
2021/06/30 12:53:25;;;;;;;;;;;;;;;25.54;57.51;97579.08;1755468;81;22165;-90